Buoy 46770

sailwx.info

Track history (hours):
 
Tides and Currents Weather Stations Pressure Air Temp Water Temp Dewpoint Dewpoint Depression Visibility Wind Speed Wind Dir Waves Ship Positions

Drifting buoy 46770

Last reported at 2015-Feb-27 18:30 UTC. Time now 2015-Feb-28 00:43 UTC.
Position N 53°02' W 176°24'.

Barometer 1016.4 mb
Water temperature 3.7 ° C

Date/timePositionNaut miles runAvg speedWind from/ knotsBaromVisibWave heightAir tempDewpointWater temp
2015-Feb-27 18:30N 53°02' W 176°24'0 0.0 1016.4 3.7
2015-Feb-27 16:30N 53°02' W 176°24'2 0.9 1014.9 3.7
2015-Feb-27 14:30N 53°03' W 176°26'1 0.6 1013.9 3.7
2015-Feb-27 12:30N 53°04' W 176°28'1 0.1 1012.7 3.7
2015-Feb-27 08:30N 53°04' W 176°28'2 0.4 1012.0 3.8
2015-Feb-27 03:30N 53°05' W 176°31'2 1.5 1012.1 3.8
2015-Feb-27 02:30N 53°05' W 176°34'0 0.1 1012.7 3.8
2015-Feb-27 00:30N 53°05' W 176°34'2 0.3 1013.3 3.8
2015-Feb-26 15:30N 53°06' W 176°38'2 1.6 1014.7 3.8
2015-Feb-26 14:30N 53°06' W 176°41'3 3.1 1015.0 3.8
2015-Feb-26 13:30N 53°04' W 176°44'1 0.1 1015.2 3.8
2015-Feb-26 07:30N 53°03' W 176°43'0 0.0 1017.7 3.9
2015-Feb-26 02:30N 53°03' W 176°43'1 0.3 1019.1 4.0
2015-Feb-26 00:30N 53°02' W 176°44'2 0.3 1020.0 4.0
2015-Feb-25 17:30N 53°00' W 176°44'2 0.8 1021.5 4.0
2015-Feb-25 15:30N 52°59' W 176°43'2 0.9 1021.6 4.0
2015-Feb-25 13:30N 52°57' W 176°42'2 0.2 1022.0 4.0
2015-Feb-25 03:30N 52°55' W 176°41'1 0.9 1022.7 4.0
2015-Feb-25 02:30N 52°55' W 176°40'0 0.0 1023.9 4.0
2015-Feb-25 01:30N 52°55' W 176°40'1 0.3 1024.2 4.0
2015-Feb-24 23:30N 52°54' W 176°39'2 0.5 1024.5 4.0
2015-Feb-24 18:30N 52°52' W 176°39'0 0.0 1024.1 4.0
2015-Feb-24 17:30N 52°52' W 176°39'1 0.7 1024.0 4.0
2015-Feb-24 15:30N 52°50' W 176°40'5 0.6 1024.1 4.0
2015-Feb-24 08:30N 52°46' W 176°41'6 0.9 1021.9 4.0
2015-Feb-24 01:30N 52°40' W 176°45'8 1.1 1017.6 4.1
2015-Feb-23 18:30N 52°32' W 176°49'1 0.7 1013.3 4.0
2015-Feb-23 16:30N 52°31' W 176°50'2 1.9 1011.8 4.0
2015-Feb-23 15:30N 52°29' W 176°50'6 2.0 1011.8 4.0
2015-Feb-23 12:30N 52°23' W 176°49'0 0.0 1011.2 4.0
2015-Feb-23 09:30N 52°23' W 176°49'3 1.0 1010.8 4.0
2015-Feb-23 06:30N 52°20' W 176°50'4 1.0 1010.3 3.9
2015-Feb-23 02:30N 52°16' W 176°52'0 0.4 1009.7 3.9
2015-Feb-23 01:30N 52°16' W 176°53'1 1.4 1009.4 3.9
2015-Feb-23 00:30N 52°15' W 176°54'3 1.4 1009.4 3.9
2015-Feb-22 22:30N 52°13' W 176°56'2 1.1 1009.5 3.9
2015-Feb-22 20:30N 52°12' W 176°59'0 0.1 1008.6 3.9
2015-Feb-22 17:30N 52°11' W 176°59'1 0.5 1006.6 3.9
2015-Feb-22 15:30N 52°11' W 177°01'1 0.8 1005.7 3.9
2015-Feb-22 14:30N 52°10' W 177°02'1 1.4 1005.4 3.9
2015-Feb-22 13:30N 52°09' W 177°01'3 2.8 1004.9 3.9
2015-Feb-22 12:30N 52°09' W 177°06'0 0.0 1004.5 3.9
2015-Feb-22 09:30N 52°09' W 177°06'1 0.7 1002.8 3.9
2015-Feb-22 08:30N 52°09' W 177°07'1 0.2 1002.6 3.9
2015-Feb-22 03:30N 52°09' W 177°09'1 0.5 1000.7 3.9
2015-Feb-22 00:30N 52°08' W 177°11'2 0.7 1001.0 3.9
2015-Feb-21 21:30N 52°08' W 177°14'1 0.2 1001.3 3.8
2015-Feb-21 16:30N 52°08' W 177°16'3 0.7 1001.5 3.7
2015-Feb-21 12:30N 52°07' W 177°20'1 0.2 1002.7 3.7
2015-Feb-21 05:30N 52°08' W 177°22'1 0.3 1003.9 3.7
2015-Feb-21 00:30N 52°08' W 177°24'0 0.0 1004.9 3.7
2015-Feb-20 23:30N 52°08' W 177°24'1 0.4 1005.5 3.7
2015-Feb-20 20:30N 52°09' W 177°25'0 0.0 1006.1 3.7
2015-Feb-20 18:30N 52°09' W 177°25'0 0.2 1006.0 3.7
2015-Feb-20 16:30N 52°09' W 177°26'2 0.2 1005.9 3.7
2015-Feb-20 07:30N 52°10' W 177°29'1 0.3 1004.0 3.8
2015-Feb-20 03:30N 52°11' W 177°30'0 0.0 1002.3 3.7
2015-Feb-20 02:30N 52°11' W 177°30'3 0.3 1001.9 3.7
2015-Feb-19 15:30N 52°14' W 177°29'2 0.2 1000.4 3.8
2015-Feb-19 05:30N 52°15' W 177°27'0 0.2 1001.9 4.0
2015-Feb-19 03:30N 52°16' W 177°27'0 0.4 1001.6 4.0
2015-Feb-19 02:30N 52°16' W 177°27'1 0.3 1001.8 4.0
2015-Feb-19 00:30N 52°16' W 177°28'1 0.1 1001.9 4.0
2015-Feb-18 16:30N 52°17' W 177°27'1 0.4 1002.8 3.9
2015-Feb-18 14:30N 52°18' W 177°28'0 0.0 1003.1 4.0
2015-Feb-18 13:30N 52°18' W 177°28'1 0.8 1003.4 4.0
2015-Feb-18 12:30N 52°17' W 177°29'0 0.1 1003.7 4.0
2015-Feb-18 06:30N 52°18' W 177°29'0 0.2 1003.5 4.1
2015-Feb-18 03:30N 52°18' W 177°30'1 0.2 1002.9 4.2
2015-Feb-18 00:30N 52°18' W 177°31'0 0.3 1002.7 4.2
2015-Feb-17 23:30N 52°18' W 177°31'1 0.3 1003.0 4.1
2015-Feb-17 18:30N 52°18' W 177°33'   1001.4 4.1
Track history (hours):
 
Tides and Currents Weather Stations Pressure Air Temp Water Temp Dewpoint Dewpoint Depression Visibility Wind Speed Wind Dir Waves Ship Positions

Drifting buoy 46770

Last reported at 2015-Feb-27 18:30 UTC. Time now 2015-Feb-28 00:43 UTC.
Position N 53°02' W 176°24'.

Barometer 1016.4 mb
Water temperature 3.7 ° C

Date/timePositionNaut miles runAvg speedWind from/ knotsBaromVisibWave heightAir tempDewpointWater temp
2015-Feb-27 18:30N 53°02' W 176°24'0 0.0 1016.4 3.7
2015-Feb-27 16:30N 53°02' W 176°24'2 0.9 1014.9 3.7
2015-Feb-27 14:30N 53°03' W 176°26'1 0.6 1013.9 3.7
2015-Feb-27 12:30N 53°04' W 176°28'1 0.1 1012.7 3.7
2015-Feb-27 08:30N 53°04' W 176°28'2 0.4 1012.0 3.8
2015-Feb-27 03:30N 53°05' W 176°31'2 1.5 1012.1 3.8
2015-Feb-27 02:30N 53°05' W 176°34'0 0.1 1012.7 3.8
2015-Feb-27 00:30N 53°05' W 176°34'2 0.3 1013.3 3.8
2015-Feb-26 15:30N 53°06' W 176°38'2 1.6 1014.7 3.8
2015-Feb-26 14:30N 53°06' W 176°41'3 3.1 1015.0 3.8
2015-Feb-26 13:30N 53°04' W 176°44'1 0.1 1015.2 3.8
2015-Feb-26 07:30N 53°03' W 176°43'0 0.0 1017.7 3.9
2015-Feb-26 02:30N 53°03' W 176°43'1 0.3 1019.1 4.0
2015-Feb-26 00:30N 53°02' W 176°44'2 0.3 1020.0 4.0
2015-Feb-25 17:30N 53°00' W 176°44'2 0.8 1021.5 4.0
2015-Feb-25 15:30N 52°59' W 176°43'2 0.9 1021.6 4.0
2015-Feb-25 13:30N 52°57' W 176°42'2 0.2 1022.0 4.0
2015-Feb-25 03:30N 52°55' W 176°41'1 0.9 1022.7 4.0
2015-Feb-25 02:30N 52°55' W 176°40'0 0.0 1023.9 4.0
2015-Feb-25 01:30N 52°55' W 176°40'1 0.3 1024.2 4.0
2015-Feb-24 23:30N 52°54' W 176°39'2 0.5 1024.5 4.0
2015-Feb-24 18:30N 52°52' W 176°39'0 0.0 1024.1 4.0
2015-Feb-24 17:30N 52°52' W 176°39'1 0.7 1024.0 4.0
2015-Feb-24 15:30N 52°50' W 176°40'5 0.6 1024.1 4.0
2015-Feb-24 08:30N 52°46' W 176°41'6 0.9 1021.9 4.0
2015-Feb-24 01:30N 52°40' W 176°45'8 1.1 1017.6 4.1
2015-Feb-23 18:30N 52°32' W 176°49'1 0.7 1013.3 4.0
2015-Feb-23 16:30N 52°31' W 176°50'2 1.9 1011.8 4.0
2015-Feb-23 15:30N 52°29' W 176°50'6 2.0 1011.8 4.0
2015-Feb-23 12:30N 52°23' W 176°49'0 0.0 1011.2 4.0
2015-Feb-23 09:30N 52°23' W 176°49'3 1.0 1010.8 4.0
2015-Feb-23 06:30N 52°20' W 176°50'4 1.0 1010.3 3.9
2015-Feb-23 02:30N 52°16' W 176°52'0 0.4 1009.7 3.9
2015-Feb-23 01:30N 52°16' W 176°53'1 1.4 1009.4 3.9
2015-Feb-23 00:30N 52°15' W 176°54'3 1.4 1009.4 3.9
2015-Feb-22 22:30N 52°13' W 176°56'2 1.1 1009.5 3.9
2015-Feb-22 20:30N 52°12' W 176°59'0 0.1 1008.6 3.9
2015-Feb-22 17:30N 52°11' W 176°59'1 0.5 1006.6 3.9
2015-Feb-22 15:30N 52°11' W 177°01'1 0.8 1005.7 3.9
2015-Feb-22 14:30N 52°10' W 177°02'1 1.4 1005.4 3.9
2015-Feb-22 13:30N 52°09' W 177°01'3 2.8 1004.9 3.9
2015-Feb-22 12:30N 52°09' W 177°06'0 0.0 1004.5 3.9
2015-Feb-22 09:30N 52°09' W 177°06'1 0.7 1002.8 3.9
2015-Feb-22 08:30N 52°09' W 177°07'1 0.2 1002.6 3.9
2015-Feb-22 03:30N 52°09' W 177°09'1 0.5 1000.7 3.9
2015-Feb-22 00:30N 52°08' W 177°11'2 0.7 1001.0 3.9
2015-Feb-21 21:30N 52°08' W 177°14'1 0.2 1001.3 3.8
2015-Feb-21 16:30N 52°08' W 177°16'3 0.7 1001.5 3.7
2015-Feb-21 12:30N 52°07' W 177°20'1 0.2 1002.7 3.7
2015-Feb-21 05:30N 52°08' W 177°22'1 0.3 1003.9 3.7
2015-Feb-21 00:30N 52°08' W 177°24'0 0.0 1004.9 3.7
2015-Feb-20 23:30N 52°08' W 177°24'1 0.4 1005.5 3.7
2015-Feb-20 20:30N 52°09' W 177°25'0 0.0 1006.1 3.7
2015-Feb-20 18:30N 52°09' W 177°25'0 0.2 1006.0 3.7
2015-Feb-20 16:30N 52°09' W 177°26'2 0.2 1005.9 3.7
2015-Feb-20 07:30N 52°10' W 177°29'1 0.3 1004.0 3.8
2015-Feb-20 03:30N 52°11' W 177°30'0 0.0 1002.3 3.7
2015-Feb-20 02:30N 52°11' W 177°30'3 0.3 1001.9 3.7
2015-Feb-19 15:30N 52°14' W 177°29'2 0.2 1000.4 3.8
2015-Feb-19 05:30N 52°15' W 177°27'0 0.2 1001.9 4.0
2015-Feb-19 03:30N 52°16' W 177°27'0 0.4 1001.6 4.0
2015-Feb-19 02:30N 52°16' W 177°27'1 0.3 1001.8 4.0
2015-Feb-19 00:30N 52°16' W 177°28'1 0.1 1001.9 4.0
2015-Feb-18 16:30N 52°17' W 177°27'1 0.4 1002.8 3.9
2015-Feb-18 14:30N 52°18' W 177°28'0 0.0 1003.1 4.0
2015-Feb-18 13:30N 52°18' W 177°28'1 0.8 1003.4 4.0
2015-Feb-18 12:30N 52°17' W 177°29'0 0.1 1003.7 4.0
2015-Feb-18 06:30N 52°18' W 177°29'0 0.2 1003.5 4.1
2015-Feb-18 03:30N 52°18' W 177°30'1 0.2 1002.9 4.2
2015-Feb-18 00:30N 52°18' W 177°31'0 0.3 1002.7 4.2
2015-Feb-17 23:30N 52°18' W 177°31'1 0.3 1003.0 4.1
2015-Feb-17 18:30N 52°18' W 177°33'   1001.4 4.1

Dump ship's entire track history